Time;durP1;ratioP1;P1;durP2;ratioP2;P2;SDS_P1;SDS_P2;PMS_P1;PMS_P2;Temp;Humidity;BMP_temperature;BMP_pressure;BME280_temperature;BME280_humidity;BME280_pressure;Samples;Min_cycle;Max_cycle;Signal;HPM_P1;HPM_P2
2021/03/14 00:02:37;;;;;;;4.00;1.33;;;;;4.10;99882.00;;;;10525981;28;20250;-76
2021/03/14 00:07:40;;;;;;;5.70;1.20;;;;;4.00;99886.00;;;;10492170;28;20216;-76
2021/03/14 00:12:42;;;;;;;5.97;1.33;;;;;3.90;99890.00;;;;10509614;28;20274;-77
2021/03/14 00:17:43;;;;;;;4.20;1.23;;;;;4.00;99904.00;;;;10508938;28;20188;-76
2021/03/14 00:22:46;;;;;;;3.60;1.63;;;;;4.00;99916.00;;;;10509013;28;20197;-76
2021/03/14 00:27:48;;;;;;;5.80;1.50;;;;;4.10;99919.00;;;;10491172;28;20262;-76
2021/03/14 00:32:49;;;;;;;4.57;1.30;;;;;4.20;99928.00;;;;10482917;28;20197;-76
2021/03/14 00:37:52;;;;;;;4.13;1.37;;;;;4.20;99932.00;;;;10474534;28;20204;-77
2021/03/14 00:42:56;;;;;;;3.60;1.57;;;;;4.10;99942.00;;;;10507678;28;20214;-77
2021/03/14 00:48:06;;;;;;;2.97;1.50;;;;;4.00;99952.00;;;;10474784;28;20303;-76
2021/03/14 00:53:10;;;;;;;6.50;2.10;;;;;3.90;99950.00;;;;10506743;28;20660;-76
2021/03/14 00:58:32;;;;;;;7.67;1.70;;;;;3.80;99967.00;;;;10495061;28;20193;-76
2021/03/14 01:03:34;;;;;;;7.93;1.70;;;;;3.70;99979.00;;;;10506018;28;20197;-76
2021/03/14 01:08:35;;;;;;;4.97;1.60;;;;;3.70;99984.00;;;;10499092;28;20201;-76
2021/03/14 01:13:37;;;;;;;4.87;1.80;;;;;3.60;99996.00;;;;10506806;28;20540;-76
2021/03/14 01:18:40;;;;;;;6.03;1.73;;;;;3.50;100002.00;;;;10489469;28;20288;-76
2021/03/14 01:23:41;;;;;;;6.53;1.80;;;;;3.50;100001.00;;;;10539434;28;20192;-76
2021/03/14 01:28:43;;;;;;;5.10;1.50;;;;;3.50;100011.00;;;;10505048;28;20262;-76
2021/03/14 01:33:44;;;;;;;6.50;2.17;;;;;3.40;100018.00;;;;10522337;28;20212;-76
2021/03/14 01:38:45;;;;;;;3.67;1.77;;;;;3.40;100023.00;;;;10505574;28;20263;-76
2021/03/14 01:43:47;;;;;;;8.10;2.07;;;;;3.30;100025.00;;;;10516041;28;20189;-76
2021/03/14 01:48:48;;;;;;;5.67;1.77;;;;;3.20;100040.00;;;;10488155;28;20204;-76
2021/03/14 01:53:49;;;;;;;4.93;1.80;;;;;3.10;100041.00;;;;10504516;28;20212;-76
2021/03/14 01:58:51;;;;;;;6.37;1.63;;;;;3.00;100056.00;;;;10521406;28;20200;-76
2021/03/14 02:03:52;;;;;;;3.93;1.50;;;;;3.00;100046.00;;;;10504136;28;20207;-77
2021/03/14 02:08:54;;;;;;;11.07;2.27;;;;;3.00;100060.00;;;;10503786;28;20216;-76
2021/03/14 02:13:59;;;;;;;4.03;1.90;;;;;3.00;100058.00;;;;10502861;28;20262;-76
2021/03/14 02:19:07;;;;;;;7.77;2.23;;;;;3.00;100066.00;;;;10504063;28;20267;-76
2021/03/14 02:24:18;;;;;;;8.10;1.93;;;;;3.00;100064.00;;;;10520395;28;20280;-76
2021/03/14 02:29:21;;;;;;;11.80;2.27;;;;;3.00;100079.00;;;;10520807;28;20192;-76
2021/03/14 02:34:58;;;;;;;9.77;2.10;;;;;3.00;100093.00;;;;10534437;28;20219;-76
2021/03/14 02:40:02;;;;;;;7.50;1.50;;;;;3.00;100100.00;;;;10479927;28;20218;-76
2021/03/14 02:45:07;;;;;;;10.53;1.77;;;;;3.00;100093.00;;;;10519837;28;20229;-76
2021/03/14 02:50:11;;;;;;;6.13;2.40;;;;;3.00;100091.00;;;;10520046;28;20196;-76
2021/03/14 02:55:14;;;;;;;10.97;2.70;;;;;3.00;100102.00;;;;10519584;28;20212;-76
2021/03/14 03:00:20;;;;;;;11.20;3.10;;;;;3.00;100104.00;;;;10503586;28;20279;-76
2021/03/14 03:05:23;;;;;;;7.50;2.20;;;;;2.90;100114.00;;;;10461525;28;20221;-76
2021/03/14 03:10:31;;;;;;;7.87;2.23;;;;;2.90;100108.00;;;;10519417;28;20228;-76
2021/03/14 03:15:33;;;;;;;11.87;2.30;;;;;2.90;100118.00;;;;10519665;28;20212;-76
2021/03/14 03:20:35;;;;;;;9.50;1.90;;;;;2.90;100120.00;;;;10519604;28;20577;-76
2021/03/14 03:25:37;;;;;;;11.30;2.97;;;;;2.90;100117.00;;;;10522706;28;20200;-76
2021/03/14 03:30:39;;;;;;;9.47;2.47;;;;;2.80;100117.00;;;;10493723;28;20189;-75
2021/03/14 03:35:41;;;;;;;8.50;2.30;;;;;2.80;100134.00;;;;10509811;28;20197;-75
2021/03/14 03:40:42;;;;;;;5.40;2.23;;;;;2.70;100129.00;;;;10493379;28;20205;-75
2021/03/14 03:45:49;;;;;;;12.23;2.67;;;;;2.60;100132.00;;;;10525118;28;20218;-75
2021/03/14 03:50:55;;;;;;;8.37;2.63;;;;;2.60;100143.00;;;;10522254;28;20224;-75
2021/03/14 03:55:57;;;;;;;12.80;2.20;;;;;2.50;100146.00;;;;10524045;28;20268;-75
2021/03/14 04:01:01;;;;;;;12.40;2.57;;;;;2.50;100154.00;;;;10487127;28;20276;-75
2021/03/14 04:06:05;;;;;;;12.10;3.17;;;;;2.50;100152.00;;;;10465356;28;20213;-75
2021/03/14 04:11:10;;;;;;;11.87;2.53;;;;;2.50;100157.00;;;;10518307;28;20220;-76
2021/03/14 04:16:13;;;;;;;11.53;2.37;;;;;2.60;100176.00;;;;10507911;28;20274;-76
2021/03/14 04:21:17;;;;;;;11.23;2.23;;;;;2.50;100161.00;;;;10507009;28;20197;-76
2021/03/14 04:26:20;;;;;;;10.03;2.70;;;;;2.60;100172.00;;;;10506099;28;20232;-76
2021/03/14 04:31:22;;;;;;;11.30;2.70;;;;;2.70;100179.00;;;;10505300;28;20216;-76
2021/03/14 04:36:24;;;;;;;7.37;2.03;;;;;2.90;100182.00;;;;10522521;28;20275;-76
2021/03/14 04:41:26;;;;;;;10.70;2.40;;;;;3.10;100189.00;;;;10495020;28;20243;-76
2021/03/14 04:46:28;;;;;;;5.27;2.47;;;;;3.30;100198.00;;;;10463960;28;20202;-76
2021/03/14 04:51:34;;;;;;;19.57;3.50;;;;;3.30;100202.00;;;;10480206;28;20181;-76
2021/03/14 04:56:37;;;;;;;13.80;2.87;;;;;3.30;100208.00;;;;10480713;28;20320;-76
2021/03/14 05:01:40;;;;;;;10.90;3.10;;;;;3.40;100210.00;;;;10532124;28;20227;-76
2021/03/14 05:06:44;;;;;;;13.97;2.57;;;;;3.50;100212.00;;;;10536975;28;20236;-76
2021/03/14 05:11:48;;;;;;;8.27;2.77;;;;;3.50;100226.00;;;;10520029;28;20224;-76
2021/03/14 05:16:49;;;;;;;12.33;3.43;;;;;3.50;100236.00;;;;10503000;28;20239;-76
2021/03/14 05:21:51;;;;;;;19.67;3.20;;;;;3.60;100247.00;;;;10502329;28;20193;-76
2021/03/14 05:26:54;;;;;;;9.63;3.17;;;;;3.60;100256.00;;;;10520168;28;20277;-77
2021/03/14 05:31:56;;;;;;;14.50;3.60;;;;;3.50;100253.00;;;;10503024;28;20717;-77
2021/03/14 05:36:58;;;;;;;8.63;3.20;;;;;3.50;100265.00;;;;10503411;28;20559;-77
2021/03/14 05:41:59;;;;;;;8.53;3.70;;;;;3.40;100271.00;;;;10519123;28;20246;-77
2021/03/14 05:47:02;;;;;;;9.30;3.77;;;;;3.30;100267.00;;;;10518682;28;20219;-77
2021/03/14 05:52:08;;;;;;;9.90;3.83;;;;;3.20;100281.00;;;;10501842;28;20848;-77
2021/03/14 05:57:09;;;;;;;7.47;3.07;;;;;3.20;100288.00;;;;10485215;28;20256;-77
2021/03/14 06:02:11;;;;;;;7.10;3.47;;;;;3.10;100284.00;;;;10467495;28;20254;-77
2021/03/14 06:07:14;;;;;;;13.43;4.60;;;;;3.20;100300.00;;;;10500094;28;20304;-76
2021/03/14 06:12:15;;;;;;;8.83;4.90;;;;;3.20;100289.00;;;;10501489;28;20209;-76
2021/03/14 06:17:17;;;;;;;8.23;4.27;;;;;3.20;100288.00;;;;10500606;28;20204;-76
2021/03/14 06:22:19;;;;;;;10.73;4.03;;;;;3.20;100297.00;;;;10500085;28;20200;-76
2021/03/14 06:27:37;;;;;;;7.50;4.43;;;;;3.30;100302.00;;;;10517374;28;20209;-76
2021/03/14 06:33:01;;;;;;;10.37;4.80;;;;;3.40;100312.00;;;;10533979;28;20199;-76
2021/03/14 06:38:25;;;;;;;7.20;3.87;;;;;3.60;100310.00;;;;10500115;28;20224;-76
2021/03/14 06:43:31;;;;;;;8.53;4.23;;;;;3.80;100326.00;;;;10500566;28;20540;-76
2021/03/14 06:48:32;;;;;;;6.60;3.87;;;;;3.90;100335.00;;;;10500380;28;20240;-76
2021/03/14 06:53:34;;;;;;;6.80;4.70;;;;;4.00;100348.00;;;;10499923;28;20243;-76
2021/03/14 06:58:36;;;;;;;10.80;4.80;;;;;4.00;100350.00;;;;10535602;28;20196;-76
2021/03/14 07:03:41;;;;;;;10.50;4.40;;;;;4.10;100358.00;;;;10523511;28;20258;-76
2021/03/14 07:08:43;;;;;;;8.70;4.60;;;;;4.10;100374.00;;;;10490229;28;20215;-76
2021/03/14 07:13:51;;;;;;;11.03;3.90;;;;;4.20;100375.00;;;;10506189;28;20900;-76
2021/03/14 07:18:53;;;;;;;7.43;4.43;;;;;4.20;100384.00;;;;10523280;28;20185;-76
2021/03/14 07:23:54;;;;;;;8.57;4.87;;;;;4.20;100384.00;;;;10489183;28;20192;-76
2021/03/14 07:28:55;;;;;;;9.87;4.53;;;;;4.60;100394.00;;;;10523372;28;20555;-76
2021/03/14 07:33:58;;;;;;;10.20;4.97;;;;;4.90;100405.00;;;;10506218;28;20246;-76
2021/03/14 07:39:01;;;;;;;13.90;5.03;;;;;5.00;100424.00;;;;10523587;28;20232;-76
2021/03/14 07:44:06;;;;;;;8.00;4.50;;;;;5.10;100435.00;;;;10489391;28;20784;-77
2021/03/14 07:49:17;;;;;;;10.83;5.30;;;;;5.00;100441.00;;;;10505446;28;20610;-76
2021/03/14 07:54:29;;;;;;;11.93;5.97;;;;;5.30;100458.00;;;;10538688;28;20564;-76
2021/03/14 07:59:31;;;;;;;12.60;5.67;;;;;5.40;100467.00;;;;10521078;28;20193;-75
2021/03/14 08:04:33;;;;;;;8.50;5.37;;;;;5.50;100477.00;;;;10521090;28;20208;-76
2021/03/14 08:09:46;;;;;;;18.63;9.53;;;;;5.40;100490.00;;;;10521362;28;20193;-75
2021/03/14 08:14:56;;;;;;;14.80;10.27;;;;;5.40;100497.00;;;;10502712;28;20243;-75
2021/03/14 08:19:58;;;;;;;13.17;8.70;;;;;5.60;100497.00;;;;10538814;28;20658;-76
2021/03/14 08:25:20;;;;;;;10.53;7.33;;;;;5.90;100504.00;;;;10553888;28;20208;-76
2021/03/14 08:30:31;;;;;;;7.37;5.17;;;;;6.20;100516.00;;;;10461980;28;20220;-75
2021/03/14 08:35:49;;;;;;;9.83;5.03;;;;;6.40;100515.00;;;;10445252;28;20335;-75
2021/03/14 08:41:19;;;;;;;9.73;5.50;;;;;6.10;100528.00;;;;10494393;28;20637;-75
2021/03/14 08:46:45;;;;;;;10.57;4.67;;;;;6.40;100548.00;;;;10512039;28;20204;-75
2021/03/14 08:51:48;;;;;;;10.07;3.90;;;;;6.70;100556.00;;;;10518891;28;20456;-76
2021/03/14 08:57:16;;;;;;;9.43;4.40;;;;;7.00;100568.00;;;;10504794;28;20701;-76
2021/03/14 09:02:26;;;;;;;12.20;4.23;;;;;6.70;100563.00;;;;10458983;28;20588;-76
2021/03/14 09:07:31;;;;;;;11.37;3.80;;;;;6.70;100574.00;;;;10481640;28;20300;-76
2021/03/14 09:12:32;;;;;;;7.77;3.50;;;;;7.00;100581.00;;;;10501094;28;20279;-76
2021/03/14 09:17:58;;;;;;;9.80;4.23;;;;;7.70;100589.00;;;;10503078;28;20212;-75
2021/03/14 09:23:05;;;;;;;7.03;4.03;;;;;8.20;100590.00;;;;10501799;28;20181;-75
2021/03/14 09:28:15;;;;;;;13.97;3.63;;;;;8.00;100602.00;;;;10499898;28;20216;-75
2021/03/14 09:33:21;;;;;;;11.37;2.67;;;;;8.20;100597.00;;;;10550566;28;20288;-76
2021/03/14 09:38:43;;;;;;;9.23;2.70;;;;;8.50;100617.00;;;;10502608;28;20290;-76
2021/03/14 09:43:55;;;;;;;8.10;3.13;;;;;8.90;100612.00;;;;10501835;28;20682;-76
2021/03/14 09:49:12;;;;;;;10.27;2.90;;;;;9.20;100627.00;;;;10533223;28;20751;-76
2021/03/14 09:54:17;;;;;;;9.00;2.63;;;;;9.70;100630.00;;;;10517038;28;20283;-76
2021/03/14 09:59:22;;;;;;;6.53;2.20;;;;;10.00;100641.00;;;;10527605;28;20189;-76
2021/03/14 13:36:47;;;;;;;5.10;1.60;;;;;11.00;100765.00;;;;1574364;24;20538;-75
2021/03/14 13:41:49;;;;;;;5.83;2.03;;;;;10.20;100770.00;;;;9760619;30;20229;-76
2021/03/14 13:47:02;;;;;;;8.67;1.83;;;;;11.40;100765.00;;;;9765013;30;20217;-76
2021/03/14 13:52:04;;;;;;;6.97;1.63;;;;;11.80;100768.00;;;;9775831;30;20220;-75
2021/03/14 13:57:06;;;;;;;10.20;2.10;;;;;11.00;100760.00;;;;9768218;30;20210;-75
2021/03/14 14:02:08;;;;;;;7.00;2.17;;;;;10.50;100781.00;;;;9796919;30;20569;-75
2021/03/14 14:07:09;;;;;;;6.80;2.00;;;;;11.20;100785.00;;;;9797019;30;20229;-75
2021/03/14 14:12:11;;;;;;;8.57;1.83;;;;;11.70;100768.00;;;;9765463;30;20308;-75
2021/03/14 14:17:13;;;;;;;7.20;1.90;;;;;10.80;100780.00;;;;9778166;30;20213;-75
2021/03/14 14:22:14;;;;;;;4.97;1.90;;;;;14.20;100757.00;;;;9752499;30;20761;-75
2021/03/14 14:27:16;;;;;;;5.40;1.50;;;;;12.90;100747.00;;;;9747143;30;20694;-76
2021/03/14 14:32:20;;;;;;;8.37;2.83;;;;;12.00;100782.00;;;;9727298;30;20210;-75
2021/03/14 14:37:22;;;;;;;6.30;1.90;;;;;12.70;100790.00;;;;9743961;30;20226;-75
2021/03/14 14:42:23;;;;;;;6.73;2.20;;;;;11.00;100781.00;;;;9756525;30;20305;-74
2021/03/14 14:47:25;;;;;;;6.97;1.80;;;;;11.70;100769.00;;;;9733304;30;20282;-75
2021/03/14 14:52:37;;;;;;;8.47;2.07;;;;;11.00;100777.00;;;;9743609;30;20214;-75
2021/03/14 14:57:39;;;;;;;4.47;1.60;;;;;10.20;100776.00;;;;9743257;30;20222;-75
2021/03/14 15:02:41;;;;;;;7.30;1.27;;;;;9.60;100780.00;;;;9730390;30;20253;-74
2021/03/14 15:07:43;;;;;;;6.43;1.80;;;;;9.70;100790.00;;;;9753888;30;20230;-75
2021/03/14 15:12:44;;;;;;;6.77;1.53;;;;;10.80;100744.00;;;;9753240;30;20245;-77
2021/03/14 15:17:47;;;;;;;8.27;2.20;;;;;12.20;100795.00;;;;9727953;30;20296;-77
2021/03/14 15:22:48;;;;;;;5.83;1.77;;;;;11.70;100781.00;;;;9729749;30;20237;-75
2021/03/14 15:27:50;;;;;;;4.53;1.53;;;;;11.20;100770.00;;;;9738391;30;20230;-76
2021/03/14 15:32:52;;;;;;;3.50;1.47;;;;;10.70;100791.00;;;;9750260;30;20313;-76
2021/03/14 15:37:54;;;;;;;6.87;1.47;;;;;10.90;100786.00;;;;9754635;30;20214;-76
2021/03/14 15:42:55;;;;;;;3.80;1.57;;;;;10.70;100784.00;;;;9759416;30;20496;-76
2021/03/14 15:47:56;;;;;;;5.77;1.70;;;;;11.00;100780.00;;;;9736158;30;20221;-76
2021/03/14 15:52:58;;;;;;;7.13;2.37;;;;;10.90;100780.00;;;;9744593;30;20210;-76
2021/03/14 15:58:03;;;;;;;6.13;1.80;;;;;11.50;100753.00;;;;9764179;30;20234;-76
2021/03/14 16:03:04;;;;;;;7.03;1.80;;;;;11.40;100784.00;;;;9763770;30;20282;-76
2021/03/14 16:08:06;;;;;;;10.53;1.97;;;;;11.10;100773.00;;;;9729778;30;20237;-75
2021/03/14 16:13:08;;;;;;;5.23;1.67;;;;;10.70;100784.00;;;;9729514;30;20242;-75
2021/03/14 16:18:10;;;;;;;4.97;1.50;;;;;10.30;100781.00;;;;9732399;30;20206;-75
2021/03/14 16:23:12;;;;;;;5.10;1.57;;;;;10.00;100787.00;;;;9765013;30;20220;-75
2021/03/14 16:28:13;;;;;;;9.80;2.00;;;;;10.30;100783.00;;;;9732598;30;20659;-75
2021/03/14 16:33:16;;;;;;;8.17;1.73;;;;;10.10;100783.00;;;;9746507;30;20567;-75
2021/03/14 16:38:18;;;;;;;6.83;1.90;;;;;9.90;100785.00;;;;9746480;30;20572;-75
2021/03/14 16:43:19;;;;;;;5.67;2.00;;;;;9.70;100774.00;;;;9761299;30;20213;-76
2021/03/14 16:48:22;;;;;;;4.93;2.00;;;;;9.60;100793.00;;;;9741795;30;20289;-76
2021/03/14 16:53:24;;;;;;;5.73;2.00;;;;;9.50;100783.00;;;;9747402;30;20218;-76
2021/03/14 16:58:25;;;;;;;4.03;0.97;;;;;9.40;100777.00;;;;9753252;30;20297;-76
2021/03/14 17:03:27;;;;;;;7.27;1.50;;;;;9.50;100798.00;;;;9760502;30;20250;-75
2021/03/14 17:08:28;;;;;;;5.43;1.80;;;;;9.50;100784.00;;;;9716512;30;20924;-75
2021/03/14 17:13:29;;;;;;;8.13;1.63;;;;;9.50;100791.00;;;;9745070;30;20667;-75
2021/03/14 17:18:38;;;;;;;8.10;2.73;;;;;9.30;100791.00;;;;9756463;30;20749;-75
2021/03/14 17:23:40;;;;;;;6.30;1.83;;;;;9.10;100783.00;;;;9728458;30;20231;-76
2021/03/14 17:28:42;;;;;;;6.23;2.10;;;;;8.90;100799.00;;;;9755940;30;20300;-75
2021/03/14 17:33:43;;;;;;;5.17;1.67;;;;;8.80;100798.00;;;;9725487;30;20272;-75
2021/03/14 17:38:44;;;;;;;4.77;1.73;;;;;8.70;100795.00;;;;9739272;30;20301;-75
2021/03/14 17:43:46;;;;;;;5.70;2.37;;;;;8.60;100798.00;;;;9750203;30;20218;-76
2021/03/14 17:48:47;;;;;;;6.80;1.60;;;;;8.50;100814.00;;;;9746155;30;20302;-75
2021/03/14 17:53:49;;;;;;;10.27;2.60;;;;;8.40;100819.00;;;;9742127;30;20302;-75
2021/03/14 17:58:50;;;;;;;7.17;1.80;;;;;8.30;100820.00;;;;9735760;30;20618;-76
2021/03/14 18:03:55;;;;;;;7.30;2.50;;;;;8.20;100826.00;;;;9723159;30;20305;-75
2021/03/14 18:08:56;;;;;;;5.97;1.73;;;;;8.00;100835.00;;;;9744127;30;21570;-76
2021/03/14 18:13:58;;;;;;;7.07;1.70;;;;;8.00;100836.00;;;;9741711;30;20241;-75
2021/03/14 18:18:59;;;;;;;8.27;2.30;;;;;7.90;100844.00;;;;9744226;30;20305;-76
2021/03/14 18:24:03;;;;;;;9.40;2.30;;;;;7.80;100844.00;;;;9728176;30;20218;-76
2021/03/14 18:29:04;;;;;;;10.03;2.50;;;;;7.70;100854.00;;;;9729893;30;20226;-76
2021/03/14 18:34:16;;;;;;;11.33;2.87;;;;;7.70;100849.00;;;;9758691;30;20198;-76
2021/03/14 18:39:17;;;;;;;7.63;2.80;;;;;7.60;100847.00;;;;9735477;30;20218;-76
2021/03/14 18:44:19;;;;;;;6.47;2.47;;;;;7.50;100845.00;;;;9727393;30;20225;-76
2021/03/14 18:49:21;;;;;;;9.77;2.43;;;;;7.30;100849.00;;;;9715275;30;20223;-76
2021/03/14 18:54:22;;;;;;;8.63;1.90;;;;;7.30;100845.00;;;;9753100;30;20238;-76
2021/03/14 18:59:24;;;;;;;9.20;3.23;;;;;7.20;100831.00;;;;9741478;30;20202;-76
2021/03/14 19:04:39;;;;;;;5.80;2.27;;;;;7.10;100845.00;;;;9744659;30;20269;-76
2021/03/14 19:09:41;;;;;;;7.73;2.30;;;;;7.10;100849.00;;;;9743161;30;20232;-76
2021/03/14 19:14:43;;;;;;;6.27;2.60;;;;;7.00;100852.00;;;;9758542;30;20381;-76
2021/03/14 19:19:44;;;;;;;9.70;2.77;;;;;6.90;100853.00;;;;9732133;30;20280;-76
2021/03/14 19:24:46;;;;;;;9.43;3.17;;;;;6.80;100849.00;;;;9728881;30;20229;-76
2021/03/14 19:29:47;;;;;;;14.67;3.33;;;;;6.70;100849.00;;;;9748447;30;20284;-75
2021/03/14 19:35:04;;;;;;;8.83;3.03;;;;;6.70;100847.00;;;;9745273;30;20256;-76
2021/03/14 19:40:08;;;;;;;11.77;3.07;;;;;6.70;100843.00;;;;9761469;30;20614;-76
2021/03/14 19:45:11;;;;;;;9.67;3.23;;;;;6.70;100852.00;;;;9763889;30;20210;-76
2021/03/14 19:50:13;;;;;;;7.67;3.80;;;;;6.60;100854.00;;;;9748540;30;20249;-76
2021/03/14 19:55:15;;;;;;;10.97;4.30;;;;;6.60;100851.00;;;;9763484;30;20267;-76
2021/03/14 20:00:17;;;;;;;9.47;3.17;;;;;6.50;100861.00;;;;9759916;30;20245;-76
2021/03/14 20:05:31;;;;;;;12.33;3.67;;;;;6.40;100855.00;;;;9749301;30;20247;-76
2021/03/14 20:10:34;;;;;;;13.33;3.63;;;;;6.30;100859.00;;;;9760185;30;20232;-76
2021/03/14 20:15:35;;;;;;;9.17;3.87;;;;;6.30;100851.00;;;;9730838;30;20297;-76
2021/03/14 20:20:37;;;;;;;10.20;3.53;;;;;6.20;100851.00;;;;9746281;30;20321;-76
2021/03/14 20:25:38;;;;;;;8.07;3.17;;;;;6.20;100848.00;;;;9750587;30;20253;-76
2021/03/14 20:30:40;;;;;;;8.97;3.60;;;;;6.20;100832.00;;;;9717384;30;20269;-77
2021/03/14 20:35:52;;;;;;;10.53;4.10;;;;;6.30;100837.00;;;;9742064;30;20245;-76
2021/03/14 20:40:53;;;;;;;8.77;3.60;;;;;6.40;100822.00;;;;9745583;30;20694;-76
2021/03/14 20:45:55;;;;;;;13.23;4.57;;;;;6.50;100829.00;;;;9728195;30;20230;-76
2021/03/14 20:50:56;;;;;;;15.73;4.53;;;;;6.60;100818.00;;;;9749252;30;20301;-77
2021/03/14 20:55:58;;;;;;;15.83;4.30;;;;;6.70;100828.00;;;;9762245;30;20293;-76
2021/03/14 21:01:26;;;;;;;16.93;4.03;;;;;6.70;100828.00;;;;10525252;27;21149;-77
2021/03/14 21:06:27;;;;;;;13.23;3.93;;;;;6.80;100818.00;;;;10499935;28;20193;-77
2021/03/14 21:11:28;;;;;;;10.57;3.90;;;;;6.90;100813.00;;;;10544307;28;20560;-77
2021/03/14 21:16:30;;;;;;;10.93;3.60;;;;;7.00;100809.00;;;;10504501;28;20709;-77
2021/03/14 21:21:32;;;;;;;11.30;4.10;;;;;7.00;100802.00;;;;10486123;28;20227;-77
2021/03/14 21:26:33;;;;;;;12.63;3.97;;;;;7.00;100804.00;;;;10447861;28;20720;-77
2021/03/14 21:31:35;;;;;;;19.37;4.10;;;;;7.00;100801.00;;;;10498425;28;20201;-77
2021/03/14 21:36:36;;;;;;;14.87;3.20;;;;;7.00;100792.00;;;;10469882;28;20225;-77
2021/03/14 21:41:38;;;;;;;12.40;4.33;;;;;7.10;100787.00;;;;10554687;28;20200;-77
2021/03/14 21:46:40;;;;;;;10.07;3.87;;;;;7.20;100781.00;;;;10518790;28;20192;-77
2021/03/14 21:51:42;;;;;;;9.67;3.37;;;;;7.10;100778.00;;;;10513279;28;20216;-77
2021/03/14 21:56:46;;;;;;;14.93;3.63;;;;;7.10;100773.00;;;;10535132;28;20219;-77
2021/03/14 22:01:47;;;;;;;8.77;2.30;;;;;6.90;100763.00;;;;10496135;28;20220;-77
2021/03/14 22:06:57;;;;;;;12.10;2.90;;;;;6.70;100768.00;;;;10539859;28;20550;-77
2021/03/14 22:11:59;;;;;;;9.20;3.67;;;;;6.60;100762.00;;;;10488472;28;20198;-77
2021/03/14 22:17:02;;;;;;;11.43;3.33;;;;;6.50;100747.00;;;;10492436;28;20217;-77
2021/03/14 22:22:04;;;;;;;11.43;3.50;;;;;6.50;100746.00;;;;10519135;28;20257;-76
2021/03/14 22:27:12;;;;;;;12.53;3.27;;;;;6.50;100741.00;;;;10467121;28;20177;-76
2021/03/14 22:32:14;;;;;;;8.63;3.20;;;;;6.60;100745.00;;;;10467579;28;20194;-77
2021/03/14 22:37:24;;;;;;;9.23;3.50;;;;;6.60;100721.00;;;;10475494;28;20293;-77
2021/03/14 22:42:26;;;;;;;10.07;3.37;;;;;6.70;100714.00;;;;10465377;28;20292;-77
2021/03/14 22:47:33;;;;;;;8.60;3.10;;;;;6.70;100710.00;;;;10458843;28;20186;-77
2021/03/14 22:52:35;;;;;;;11.70;3.57;;;;;6.70;100707.00;;;;10476219;28;20601;-77
2021/03/14 22:57:36;;;;;;;8.43;3.43;;;;;6.70;100697.00;;;;10465470;28;20227;-76
2021/03/14 23:02:59;;;;;;;11.53;3.40;;;;;6.70;100695.00;;;;10460097;28;20204;-77
2021/03/14 23:08:10;;;;;;;9.53;3.33;;;;;6.60;100677.00;;;;10445043;28;20294;-77
2021/03/14 23:13:11;;;;;;;8.40;3.83;;;;;6.50;100675.00;;;;10467581;28;20255;-77
2021/03/14 23:18:13;;;;;;;13.83;4.10;;;;;6.40;100679.00;;;;10479369;28;20263;-77
2021/03/14 23:23:19;;;;;;;12.97;4.13;;;;;6.30;100666.00;;;;10460177;28;20233;-77
2021/03/14 23:28:45;;;;;;;11.93;3.10;;;;;6.20;100658.00;;;;10482913;28;20251;-77
2021/03/14 23:33:46;;;;;;;10.43;3.87;;;;;6.10;100655.00;;;;10457109;28;20194;-77
2021/03/14 23:38:48;;;;;;;11.17;3.00;;;;;6.10;100639.00;;;;10473394;28;20237;-77
2021/03/14 23:43:49;;;;;;;10.13;3.33;;;;;6.10;100625.00;;;;10464334;28;20204;-77
2021/03/14 23:48:53;;;;;;;12.63;3.00;;;;;6.10;100619.00;;;;10462499;28;20212;-77
2021/03/14 23:53:54;;;;;;;12.37;2.83;;;;;6.10;100604.00;;;;10465205;28;20206;-77
2021/03/14 23:58:56;;;;;;;17.17;3.83;;;;;6.10;100620.00;;;;10469404;28;20233;-77
